Aviation Digital Data Service (ADDS)

Output produced by METARs form (1243 UTC 16 July 2019)
found at http://www.aviationweather.gov/metar/data/
 
TAF AMD OAIX 160930Z 1609/1713 34012KT 9999 FEW150 QNH2964INS 
     TEMPO 1609/1622 35015G25KT 520009 
     BECMG 1621/1622 35012KT 9999 SKC QNH2982INS 
     BECMG 1704/1705 35012G18KT 9999 FEW150 QNH2982INS 
     BECMG 1705/1706 35015G25KT 9999 FEW150 520009 QNH2967INS 
     BECMG 1710/1711 35020G30KT 9999 FEW150 520009 QNH2967INS TX37/1610Z
TN25/1701Z